Time;durP1;ratioP1;P1;durP2;ratioP2;P2;SDS_P1;SDS_P2;PMS_P1;PMS_P2;Temp;Humidity;BMP_temperature;BMP_pressure;BME280_temperature;BME280_humidity;BME280_pressure;Samples;Min_cycle;Max_cycle;Signal;HPM_P1;HPM_P2
2023/12/10 00:00:13;;;;;;;1.90;1.80;;;;;;;;;;1043709;28;20032;-75
2023/12/10 00:00:44;;;;;;;0.65;0.65;;;;;;;;;;1039891;28;20018;-75
2023/12/10 00:01:15;;;;;;;1.65;1.38;;;;;;;;;;1040145;28;20026;-74
2023/12/10 00:01:45;;;;;;;3.58;3.20;;;;;;;;;;1040319;28;20099;-75
2023/12/10 00:02:15;;;;;;;3.10;2.83;;;;;;;;;;1040293;28;20036;-73
2023/12/10 00:02:46;;;;;;;1.65;1.00;;;;;;;;;;1040043;28;20030;-74
2023/12/10 00:03:16;;;;;;;7.18;2.97;;;;;;;;;;1040247;28;20030;-74
2023/12/10 00:03:47;;;;;;;1.88;1.75;;;;;;;;;;1038285;28;20173;-74
2023/12/10 00:04:17;;;;;;;2.13;1.55;;;;;;;;;;1040072;28;20116;-74
2023/12/10 00:04:48;;;;;;;3.08;2.78;;;;;;;;;;1035407;28;20054;-74
2023/12/10 00:05:18;;;;;;;2.60;2.30;;;;;;;;;;1035641;28;20104;-74
2023/12/10 00:05:49;;;;;;;4.05;1.95;;;;;;;;;;1035691;28;20819;-75
2023/12/10 00:06:19;;;;;;;4.13;1.25;;;;;;;;;;1035617;28;20030;-73
2023/12/10 00:06:49;;;;;;;3.17;2.70;;;;;;;;;;1039872;28;20571;-74
2023/12/10 00:07:20;;;;;;;2.70;1.25;;;;;;;;;;1040142;28;20510;-74
2023/12/10 00:07:52;;;;;;;2.25;1.83;;;;;;;;;;1040210;28;20052;-74
2023/12/10 00:08:23;;;;;;;11.60;4.50;;;;;;;;;;1039444;28;20592;-74
2023/12/10 00:08:53;;;;;;;1.60;1.48;;;;;;;;;;1039703;28;20128;-73
2023/12/10 00:09:24;;;;;;;1.00;1.00;;;;;;;;;;1040366;28;20034;-75
2023/12/10 00:09:54;;;;;;;2.58;1.85;;;;;;;;;;1040222;28;20053;-74
2023/12/10 00:10:25;;;;;;;1.85;1.67;;;;;;;;;;1039367;28;20082;-74
2023/12/10 00:10:55;;;;;;;3.55;3.08;;;;;;;;;;1039658;28;20500;-74
2023/12/10 00:11:25;;;;;;;7.35;3.42;;;;;;;;;;1039857;28;20029;-75
2023/12/10 00:11:56;;;;;;;2.08;1.85;;;;;;;;;;1035707;28;20029;-74
2023/12/10 00:12:26;;;;;;;5.43;3.70;;;;;;;;;;1035511;28;20025;-74
2023/12/10 00:12:57;;;;;;;2.03;0.73;;;;;;;;;;1035858;28;20613;-75
2023/12/10 00:13:27;;;;;;;3.25;2.92;;;;;;;;;;1035614;28;20061;-74
2023/12/10 00:13:58;;;;;;;6.75;2.90;;;;;;;;;;1039857;28;20032;-74
2023/12/10 00:14:28;;;;;;;3.72;2.47;;;;;;;;;;1039761;28;20032;-74
2023/12/10 00:14:59;;;;;;;1.23;1.13;;;;;;;;;;1039613;28;20156;-75
2023/12/10 00:15:29;;;;;;;1.55;1.45;;;;;;;;;;1039573;28;20108;-74
2023/12/10 00:15:59;;;;;;;1.65;1.40;;;;;;;;;;1039788;28;20032;-74
2023/12/10 00:16:30;;;;;;;1.95;1.85;;;;;;;;;;1039479;28;20030;-75
2023/12/10 00:17:00;;;;;;;3.20;1.20;;;;;;;;;;1040060;28;20036;-75
2023/12/10 00:17:31;;;;;;;1.52;1.25;;;;;;;;;;1039643;28;20034;-74
2023/12/10 00:18:01;;;;;;;7.65;1.88;;;;;;;;;;1039623;28;20067;-74
2023/12/10 00:18:32;;;;;;;2.45;2.05;;;;;;;;;;1039950;28;20022;-75
2023/12/10 00:19:02;;;;;;;2.08;1.65;;;;;;;;;;1035806;28;20033;-75
2023/12/10 00:19:33;;;;;;;2.30;1.98;;;;;;;;;;1038584;28;20029;-74
2023/12/10 00:20:04;;;;;;;3.70;2.10;;;;;;;;;;1040818;28;20067;-74
2023/12/10 00:20:35;;;;;;;1.20;1.13;;;;;;;;;;1041530;28;20535;-73
2023/12/10 00:21:05;;;;;;;0.55;0.55;;;;;;;;;;1035887;28;20026;-74
2023/12/10 00:21:37;;;;;;;3.72;2.05;;;;;;;;;;1035272;28;20107;-74
2023/12/10 00:22:07;;;;;;;3.17;2.97;;;;;;;;;;1038314;28;20033;-74
2023/12/10 00:22:38;;;;;;;5.88;3.25;;;;;;;;;;1037001;28;20018;-74
2023/12/10 00:23:11;;;;;;;0.95;0.95;;;;;;;;;;1040025;28;20060;-74
2023/12/10 00:23:42;;;;;;;0.20;0.20;;;;;;;;;;1038280;28;20014;-74
2023/12/10 00:24:12;;;;;;;7.43;2.17;;;;;;;;;;1039898;28;20500;-74
2023/12/10 00:24:42;;;;;;;1.10;1.10;;;;;;;;;;1039759;28;20402;-74
2023/12/10 00:25:13;;;;;;;0.65;0.65;;;;;;;;;;1039756;28;20433;-76
2023/12/10 00:25:45;;;;;;;1.35;1.27;;;;;;;;;;1039777;28;20460;-75
2023/12/10 00:26:16;;;;;;;2.55;2.35;;;;;;;;;;1039913;28;20077;-74
2023/12/10 00:26:46;;;;;;;1.23;1.17;;;;;;;;;;1040138;28;20018;-74
2023/12/10 00:27:16;;;;;;;1.38;1.27;;;;;;;;;;1038250;28;20030;-74
2023/12/10 00:27:47;;;;;;;6.32;4.20;;;;;;;;;;1039006;28;20028;-74
2023/12/10 00:28:18;;;;;;;1.10;1.10;;;;;;;;;;1039713;28;20026;-74
2023/12/10 00:28:48;;;;;;;1.42;1.27;;;;;;;;;;1039467;28;20025;-74
2023/12/10 00:29:18;;;;;;;1.30;1.27;;;;;;;;;;1039954;28;20058;-74
2023/12/10 00:29:49;;;;;;;0.50;0.50;;;;;;;;;;1039937;28;20022;-74
2023/12/10 00:30:20;;;;;;;3.15;1.40;;;;;;;;;;1040116;28;20076;-74
2023/12/10 00:30:50;;;;;;;2.08;1.35;;;;;;;;;;1040048;28;20077;-75
2023/12/10 00:31:21;;;;;;;5.78;5.25;;;;;;;;;;1039855;28;20053;-74
2023/12/10 00:31:51;;;;;;;2.35;2.17;;;;;;;;;;1039972;28;20037;-74
2023/12/10 00:32:22;;;;;;;11.40;1.95;;;;;;;;;;1040149;28;20061;-74
2023/12/10 00:32:54;;;;;;;6.68;3.47;;;;;;;;;;1040202;28;20094;-74
2023/12/10 00:33:24;;;;;;;2.03;1.60;;;;;;;;;;1039994;28;20033;-74
2023/12/10 00:33:55;;;;;;;0.82;0.82;;;;;;;;;;1038788;28;20088;-74
2023/12/10 00:34:25;;;;;;;6.50;3.95;;;;;;;;;;1039501;28;20393;-73
2023/12/10 00:34:56;;;;;;;3.10;2.90;;;;;;;;;;1035479;28;20044;-74
2023/12/10 00:35:26;;;;;;;1.13;1.10;;;;;;;;;;1035579;28;20025;-75
2023/12/10 00:35:56;;;;;;;1.20;1.05;;;;;;;;;;1035938;28;20517;-73
2023/12/10 00:36:27;;;;;;;3.22;3.00;;;;;;;;;;1039237;28;20021;-74
2023/12/10 00:36:57;;;;;;;1.48;1.38;;;;;;;;;;1040010;28;20026;-74
2023/12/10 00:37:28;;;;;;;1.20;0.95;;;;;;;;;;1039876;28;20025;-74
2023/12/10 00:37:58;;;;;;;3.05;2.85;;;;;;;;;;1040014;28;20025;-74
2023/12/10 00:38:29;;;;;;;1.88;1.58;;;;;;;;;;1040208;28;20144;-75
2023/12/10 00:38:59;;;;;;;3.55;3.25;;;;;;;;;;1039579;28;20033;-74
2023/12/10 00:39:30;;;;;;;1.85;1.75;;;;;;;;;;1039760;28;20080;-75
2023/12/10 00:40:00;;;;;;;3.30;2.83;;;;;;;;;;1039756;28;20021;-74
2023/12/10 00:40:31;;;;;;;2.00;1.80;;;;;;;;;;1039931;28;20028;-75
2023/12/10 00:41:02;;;;;;;0.85;0.85;;;;;;;;;;1040034;28;20061;-74
2023/12/10 00:41:32;;;;;;;2.92;0.73;;;;;;;;;;1039951;28;20026;-74
2023/12/10 00:42:03;;;;;;;0.68;0.60;;;;;;;;;;1040164;28;20029;-74
2023/12/10 00:42:33;;;;;;;1.65;1.55;;;;;;;;;;1039833;28;20021;-75
2023/12/10 00:43:04;;;;;;;1.25;0.85;;;;;;;;;;1039982;28;20084;-74
2023/12/10 00:43:34;;;;;;;12.05;1.38;;;;;;;;;;1039928;28;20017;-74
2023/12/10 00:44:06;;;;;;;1.50;1.40;;;;;;;;;;1040061;28;20120;-74
2023/12/10 00:44:36;;;;;;;3.03;2.35;;;;;;;;;;1040239;28;20032;-74
2023/12/10 00:45:07;;;;;;;0.32;0.30;;;;;;;;;;1040211;28;20497;-74
2023/12/10 00:45:37;;;;;;;1.20;1.20;;;;;;;;;;1039650;28;20490;-74
2023/12/10 00:46:08;;;;;;;2.45;1.13;;;;;;;;;;1039747;28;20021;-75
2023/12/10 00:46:39;;;;;;;1.80;1.70;;;;;;;;;;1039700;28;20112;-74
2023/12/10 00:47:09;;;;;;;0.30;0.30;;;;;;;;;;1040035;28;20040;-74
2023/12/10 00:47:39;;;;;;;3.42;3.22;;;;;;;;;;1040021;28;20394;-74
2023/12/10 00:48:12;;;;;;;0.70;0.70;;;;;;;;;;1039778;28;20501;-74
2023/12/10 00:48:43;;;;;;;0.63;0.63;;;;;;;;;;1039883;28;20029;-74
2023/12/10 00:49:13;;;;;;;0.93;0.93;;;;;;;;;;1039658;28;20029;-74
2023/12/10 00:49:44;;;;;;;1.75;0.95;;;;;;;;;;1039627;28;20576;-74
2023/12/10 00:50:14;;;;;;;3.25;2.17;;;;;;;;;;1039677;28;20029;-73
2023/12/10 00:50:45;;;;;;;1.73;1.63;;;;;;;;;;1039500;28;20026;-74
2023/12/10 00:51:19;;;;;;;2.08;1.65;;;;;;;;;;1039563;28;20032;-74
2023/12/10 00:51:49;;;;;;;0.75;0.75;;;;;;;;;;1039091;28;20079;-74
2023/12/10 00:52:20;;;;;;;2.28;1.65;;;;;;;;;;1039491;28;20021;-74
2023/12/10 00:52:50;;;;;;;2.45;2.35;;;;;;;;;;1039683;28;20026;-74
2023/12/10 00:53:21;;;;;;;1.00;1.00;;;;;;;;;;1039705;28;20028;-74
2023/12/10 00:53:51;;;;;;;3.63;2.70;;;;;;;;;;1039722;28;20029;-74
2023/12/10 00:54:22;;;;;;;2.53;2.00;;;;;;;;;;1039600;28;20156;-74
2023/12/10 00:54:52;;;;;;;1.73;1.52;;;;;;;;;;1039689;28;20029;-74
2023/12/10 00:55:22;;;;;;;9.05;2.85;;;;;;;;;;1039716;28;20029;-75
2023/12/10 00:55:53;;;;;;;1.08;1.00;;;;;;;;;;1040364;28;20025;-75
2023/12/10 00:56:23;;;;;;;2.42;1.50;;;;;;;;;;1039657;28;20021;-74
2023/12/10 00:56:54;;;;;;;2.15;1.25;;;;;;;;;;1039484;28;20025;-74
2023/12/10 00:57:24;;;;;;;3.08;2.78;;;;;;;;;;1035547;28;20022;-74
2023/12/10 00:57:55;;;;;;;1.35;1.27;;;;;;;;;;1035842;28;20030;-74
2023/12/10 00:58:26;;;;;;;1.55;1.02;;;;;;;;;;1040050;28;20120;-74
2023/12/10 00:58:56;;;;;;;2.03;1.25;;;;;;;;;;1035801;28;20022;-74
2023/12/10 00:59:26;;;;;;;1.65;1.55;;;;;;;;;;1039665;28;20025;-74
2023/12/10 00:59:58;;;;;;;1.20;1.20;;;;;;;;;;1039718;28;20029;-74
2023/12/10 01:00:30;;;;;;;0.82;0.82;;;;;;;;;;1035625;28;20112;-74
2023/12/10 01:01:00;;;;;;;3.40;1.77;;;;;;;;;;1035686;28;20032;-74
2023/12/10 01:01:31;;;;;;;1.65;1.55;;;;;;;;;;1035544;28;20402;-74
2023/12/10 01:02:01;;;;;;;1.10;1.08;;;;;;;;;;1036018;28;20026;-74
2023/12/10 01:02:31;;;;;;;1.88;1.70;;;;;;;;;;1039574;28;20017;-74
2023/12/10 01:03:04;;;;;;;7.68;5.90;;;;;;;;;;1039575;28;20026;-73
2023/12/10 01:03:35;;;;;;;14.40;2.65;;;;;;;;;;1039539;28;20032;-73
2023/12/10 01:04:05;;;;;;;3.70;2.65;;;;;;;;;;1039521;28;20028;-73
2023/12/10 01:04:36;;;;;;;0.95;0.93;;;;;;;;;;1039693;28;20036;-74
2023/12/10 01:05:06;;;;;;;0.52;0.43;;;;;;;;;;1039910;28;20022;-74
2023/12/10 01:05:37;;;;;;;1.15;1.10;;;;;;;;;;1039809;28;20060;-74
2023/12/10 01:06:09;;;;;;;0.88;0.88;;;;;;;;;;1039888;28;20155;-75
2023/12/10 01:06:40;;;;;;;0.32;0.32;;;;;;;;;;1039861;28;20022;-74
2023/12/10 01:07:11;;;;;;;3.70;3.30;;;;;;;;;;1040115;28;20018;-73
2023/12/10 01:07:41;;;;;;;1.95;1.77;;;;;;;;;;1039473;28;20025;-74
2023/12/10 01:08:12;;;;;;;2.60;1.65;;;;;;;;;;1039716;28;20076;-74
2023/12/10 01:08:43;;;;;;;3.55;1.48;;;;;;;;;;1039535;28;20087;-74
2023/12/10 01:09:15;;;;;;;0.80;0.80;;;;;;;;;;1039717;28;20017;-74
2023/12/10 01:09:45;;;;;;;17.20;1.77;;;;;;;;;;1039623;28;20091;-74
2023/12/10 01:10:16;;;;;;;4.85;3.63;;;;;;;;;;1039728;28;20128;-75
2023/12/10 01:10:46;;;;;;;1.55;1.45;;;;;;;;;;1039553;28;20116;-73
2023/12/10 01:11:16;;;;;;;0.30;0.30;;;;;;;;;;1043690;28;20485;-74
2023/12/10 01:11:47;;;;;;;0.73;0.63;;;;;;;;;;1043784;28;20025;-73
2023/12/10 01:12:17;;;;;;;0.75;0.75;;;;;;;;;;1043864;28;20028;-74
2023/12/10 01:12:48;;;;;;;2.78;2.53;;;;;;;;;;1040399;28;20025;-74
2023/12/10 01:13:18;;;;;;;1.85;1.75;;;;;;;;;;1039976;28;20018;-73
2023/12/10 01:13:49;;;;;;;4.03;2.53;;;;;;;;;;1039489;28;20033;-73
2023/12/10 01:14:19;;;;;;;0.25;0.25;;;;;;;;;;1039542;28;20026;-74
2023/12/10 01:14:50;;;;;;;1.83;1.67;;;;;;;;;;1039682;28;20025;-74
2023/12/10 01:15:29;;;;;;;2.10;2.00;;;;;;;;;;1039318;28;20087;-74
2023/12/10 01:15:59;;;;;;;5.13;2.72;;;;;;;;;;1040177;28;20065;-74
2023/12/10 01:16:30;;;;;;;2.08;1.80;;;;;;;;;;1039284;28;20054;-74
2023/12/10 01:17:00;;;;;;;0.60;0.57;;;;;;;;;;1039776;28;20022;-74
2023/12/10 01:17:31;;;;;;;1.95;1.17;;;;;;;;;;1039555;28;20025;-74
2023/12/10 01:18:02;;;;;;;6.00;2.90;;;;;;;;;;1037868;28;20573;-74
2023/12/10 01:18:32;;;;;;;3.10;2.83;;;;;;;;;;1038498;28;20030;-74
2023/12/10 01:19:03;;;;;;;0.85;0.85;;;;;;;;;;1040121;28;20071;-74
2023/12/10 01:19:33;;;;;;;2.28;1.77;;;;;;;;;;1039721;28;20024;-75
2023/12/10 01:20:04;;;;;;;2.20;2.00;;;;;;;;;;1040679;28;20043;-75
2023/12/10 01:20:37;;;;;;;1.52;1.45;;;;;;;;;;1040104;28;20081;-75
2023/12/10 01:21:10;;;;;;;4.10;3.00;;;;;;;;;;1040452;28;20030;-74
2023/12/10 01:21:40;;;;;;;3.13;2.60;;;;;;;;;;1039932;28;20022;-74
2023/12/10 01:22:11;;;;;;;6.85;3.25;;;;;;;;;;1040470;28;20104;-74
2023/12/10 01:22:41;;;;;;;1.77;1.33;;;;;;;;;;1040325;28;20044;-74
2023/12/10 01:23:12;;;;;;;3.03;2.03;;;;;;;;;;1040535;28;20120;-75
2023/12/10 01:23:42;;;;;;;1.33;1.25;;;;;;;;;;1040335;28;20013;-73
2023/12/10 01:24:16;;;;;;;1.02;1.00;;;;;;;;;;1036798;28;20033;-74
2023/12/10 01:24:47;;;;;;;0.98;0.95;;;;;;;;;;1035255;28;20041;-74
2023/12/10 01:25:17;;;;;;;0.90;0.90;;;;;;;;;;1036855;28;20018;-74
2023/12/10 01:25:48;;;;;;;6.70;1.95;;;;;;;;;;1040373;28;20025;-73
2023/12/10 01:26:18;;;;;;;0.90;0.90;;;;;;;;;;1040668;28;20017;-73
2023/12/10 01:26:48;;;;;;;1.17;1.08;;;;;;;;;;1040798;28;20029;-74
2023/12/10 01:27:19;;;;;;;2.38;1.95;;;;;;;;;;1041256;28;20085;-74
2023/12/10 01:27:51;;;;;;;1.90;1.80;;;;;;;;;;1040851;28;20059;-75
2023/12/10 01:28:21;;;;;;;1.02;1.00;;;;;;;;;;1040476;28;20116;-75
2023/12/10 01:28:51;;;;;;;0.65;0.65;;;;;;;;;;1040547;28;20384;-75
2023/12/10 01:29:22;;;;;;;0.82;0.82;;;;;;;;;;1040504;28;20022;-74
2023/12/10 01:29:52;;;;;;;0.65;0.65;;;;;;;;;;1040513;28;20036;-74
2023/12/10 01:30:23;;;;;;;1.77;1.10;;;;;;;;;;1040506;28;20138;-74
2023/12/10 01:30:53;;;;;;;0.90;0.90;;;;;;;;;;1040635;28;20021;-74
2023/12/10 01:31:25;;;;;;;1.92;1.77;;;;;;;;;;1040544;28;20021;-73
2023/12/10 01:31:55;;;;;;;0.55;0.55;;;;;;;;;;1040854;28;20021;-73
2023/12/10 01:32:26;;;;;;;1.35;1.20;;;;;;;;;;1040652;28;20095;-73
2023/12/10 01:32:59;;;;;;;1.85;1.38;;;;;;;;;;1040451;28;20112;-73
2023/12/10 01:33:30;;;;;;;3.40;2.03;;;;;;;;;;1040059;28;20036;-73
2023/12/10 01:34:00;;;;;;;0.38;0.38;;;;;;;;;;1036368;28;20032;-73
2023/12/10 01:34:31;;;;;;;1.27;1.02;;;;;;;;;;1036656;28;20029;-74
2023/12/10 01:35:01;;;;;;;2.28;1.38;;;;;;;;;;1040394;28;20017;-74
2023/12/10 01:35:32;;;;;;;5.35;1.27;;;;;;;;;;1040431;28;20393;-75
2023/12/10 01:36:02;;;;;;;2.60;1.70;;;;;;;;;;1041114;28;20021;-74
2023/12/10 01:36:33;;;;;;;2.75;2.55;;;;;;;;;;1040509;28;20025;-75
2023/12/10 01:37:03;;;;;;;3.00;2.13;;;;;;;;;;1040804;28;20026;-74
2023/12/10 01:37:34;;;;;;;6.45;1.10;;;;;;;;;;1040173;28;20420;-74
2023/12/10 01:38:04;;;;;;;1.48;1.38;;;;;;;;;;1040440;28;20029;-75
2023/12/10 01:38:34;;;;;;;1.52;1.45;;;;;;;;;;1040580;28;20032;-75
2023/12/10 01:39:05;;;;;;;1.15;1.00;;;;;;;;;;1040525;28;20095;-74
2023/12/10 01:39:35;;;;;;;3.70;2.17;;;;;;;;;;1040696;28;20112;-74
2023/12/10 01:40:08;;;;;;;4.85;1.95;;;;;;;;;;1040796;28;20144;-74
2023/12/10 01:40:39;;;;;;;8.63;1.90;;;;;;;;;;1040155;28;20685;-73
2023/12/10 01:41:09;;;;;;;0.82;0.82;;;;;;;;;;1040228;28;20021;-73
2023/12/10 01:41:40;;;;;;;3.20;3.00;;;;;;;;;;1039935;28;20092;-74
2023/12/10 01:42:10;;;;;;;5.50;2.70;;;;;;;;;;1040508;28;20099;-74
2023/12/10 01:42:46;;;;;;;11.40;2.65;;;;;;;;;;1040042;28;20025;-74
2023/12/10 01:43:20;;;;;;;2.00;1.90;;;;;;;;;;1040605;28;20029;-74
2023/12/10 01:43:51;;;;;;;1.85;1.73;;;;;;;;;;1040378;28;20024;-74
2023/12/10 01:44:22;;;;;;;1.15;1.10;;;;;;;;;;1040593;28;20032;-74
2023/12/10 01:44:52;;;;;;;1.67;0.85;;;;;;;;;;1040212;28;20033;-74
2023/12/10 01:45:23;;;;;;;5.15;1.73;;;;;;;;;;1040337;28;20096;-74
2023/12/10 01:45:54;;;;;;;1.30;1.20;;;;;;;;;;1040331;28;20111;-74
2023/12/10 01:46:25;;;;;;;3.75;1.35;;;;;;;;;;1036298;28;20030;-75
2023/12/10 01:46:55;;;;;;;0.55;0.55;;;;;;;;;;1035656;28;20018;-74
2023/12/10 01:47:26;;;;;;;2.10;1.90;;;;;;;;;;1040616;28;20076;-74
2023/12/10 01:47:57;;;;;;;3.78;1.23;;;;;;;;;;1040518;28;20026;-74
2023/12/10 01:48:28;;;;;;;3.53;3.20;;;;;;;;;;1040219;28;20032;-74
2023/12/10 01:48:59;;;;;;;2.85;2.65;;;;;;;;;;1040558;28;20025;-75
2023/12/10 01:49:30;;;;;;;2.83;2.38;;;;;;;;;;1040208;28;20037;-73
2023/12/10 01:50:06;;;;;;;1.65;1.55;;;;;;;;;;1040939;28;20029;-74
2023/12/10 01:50:38;;;;;;;2.63;1.63;;;;;;;;;;1040052;28;20029;-74
2023/12/10 01:51:09;;;;;;;1.60;1.52;;;;;;;;;;1040347;28;20022;-73
2023/12/10 01:51:40;;;;;;;1.00;0.77;;;;;;;;;;1040039;28;20056;-74
2023/12/10 01:52:11;;;;;;;12.68;2.35;;;;;;;;;;1040373;28;20095;-74
2023/12/10 01:52:45;;;;;;;2.75;2.55;;;;;;;;;;1040280;28;20459;-74
2023/12/10 01:53:15;;;;;;;2.63;0.80;;;;;;;;;;1040524;28;20478;-73
2023/12/10 01:53:46;;;;;;;1.90;1.80;;;;;;;;;;1040519;28;20021;-74
2023/12/10 01:54:22;;;;;;;1.85;0.95;;;;;;;;;;1039721;28;20059;-74
2023/12/10 01:54:53;;;;;;;1.25;1.15;;;;;;;;;;1040562;28;20305;-74
2023/12/10 01:55:24;;;;;;;2.33;2.17;;;;;;;;;;1040616;28;20032;-74
2023/12/10 01:55:54;;;;;;;9.55;3.83;;;;;;;;;;1040982;28;20033;-74
2023/12/10 01:56:25;;;;;;;5.53;1.60;;;;;;;;;;1040595;28;20056;-74
2023/12/10 01:56:56;;;;;;;5.53;3.00;;;;;;;;;;1039467;28;20060;-73
2023/12/10 01:57:27;;;;;;;3.92;1.45;;;;;;;;;;1040219;28;20114;-74
2023/12/10 01:57:58;;;;;;;5.55;4.53;;;;;;;;;;1040309;28;20030;-73
2023/12/10 01:58:28;;;;;;;4.13;2.85;;;;;;;;;;1040336;28;20053;-73
2023/12/10 01:58:59;;;;;;;3.67;2.03;;;;;;;;;;1041070;28;20206;-75
2023/12/10 01:59:29;;;;;;;1.13;1.02;;;;;;;;;;1040691;28;20139;-74
2023/12/10 02:00:00;;;;;;;4.65;1.67;;;;;;;;;;1040550;28;20056;-74
2023/12/10 02:00:32;;;;;;;5.93;2.88;;;;;;;;;;1040550;28;20112;-73
2023/12/10 02:01:05;;;;;;;2.28;1.10;;;;;;;;;;1039902;28;20022;-74
2023/12/10 02:01:36;;;;;;;1.92;1.10;;;;;;;;;;1040802;28;20056;-73
2023/12/10 02:02:07;;;;;;;2.47;1.67;;;;;;;;;;1040147;28;20068;-74
2023/12/10 02:02:39;;;;;;;1.17;0.98;;;;;;;;;;1035985;28;20018;-75
2023/12/10 02:03:09;;;;;;;1.52;1.48;;;;;;;;;;1036600;28;20029;-75
2023/12/10 02:03:40;;;;;;;2.13;1.48;;;;;;;;;;1035849;28;20021;-74
2023/12/10 02:04:11;;;;;;;4.40;2.63;;;;;;;;;;1040199;28;20045;-75
2023/12/10 02:04:42;;;;;;;4.45;1.23;;;;;;;;;;1040778;28;20025;-74
2023/12/10 02:05:12;;;;;;;14.80;2.28;;;;;;;;;;1040636;28;20017;-73
2023/12/10 02:05:42;;;;;;;6.03;2.25;;;;;;;;;;1040014;28;20022;-73
2023/12/10 02:06:13;;;;;;;1.83;1.73;;;;;;;;;;1036222;28;20033;-74
2023/12/10 02:06:44;;;;;;;1.25;0.80;;;;;;;;;;1036118;28;20072;-74
2023/12/10 02:07:14;;;;;;;5.10;2.90;;;;;;;;;;1036416;28;20495;-74
2023/12/10 02:07:45;;;;;;;5.43;1.95;;;;;;;;;;1040456;28;20061;-74
2023/12/10 02:08:16;;;;;;;2.30;2.10;;;;;;;;;;1040471;28;20405;-74
2023/12/10 02:08:46;;;;;;;1.02;0.82;;;;;;;;;;1040176;28;20022;-74
2023/12/10 02:09:18;;;;;;;7.68;3.45;;;;;;;;;;1040279;28;20022;-75
2023/12/10 02:09:49;;;;;;;7.25;1.83;;;;;;;;;;1040331;28;20021;-75
2023/12/10 02:10:20;;;;;;;1.63;1.52;;;;;;;;;;1040763;28;20026;-74
2023/12/10 02:10:50;;;;;;;2.67;2.20;;;;;;;;;;1040222;28;21000;-74
2023/12/10 02:11:21;;;;;;;4.75;2.70;;;;;;;;;;1040621;28;20026;-74
2023/12/10 02:11:52;;;;;;;5.10;2.10;;;;;;;;;;1040868;28;20052;-74
2023/12/10 02:12:23;;;;;;;1.40;0.82;;;;;;;;;;1040672;28;20017;-74
2023/12/10 02:12:54;;;;;;;1.33;1.25;;;;;;;;;;1040537;28;20032;-74
2023/12/10 02:13:25;;;;;;;0.93;0.90;;;;;;;;;;1040102;28;20108;-74
2023/12/10 02:13:56;;;;;;;3.63;2.40;;;;;;;;;;1039725;28;20021;-73
2023/12/10 02:14:26;;;;;;;1.60;1.50;;;;;;;;;;1040026;28;20378;-74
2023/12/10 02:14:56;;;;;;;0.73;0.73;;;;;;;;;;1040277;28;20543;-74
2023/12/10 02:15:29;;;;;;;9.55;3.17;;;;;;;;;;1040021;28;20569;-74
2023/12/10 02:16:00;;;;;;;4.15;2.72;;;;;;;;;;1040364;28;20028;-74
2023/12/10 02:16:31;;;;;;;3.05;2.72;;;;;;;;;;1040145;28;20056;-74
2023/12/10 02:17:01;;;;;;;6.30;3.90;;;;;;;;;;1040568;28;20024;-74
2023/12/10 02:17:32;;;;;;;1.67;1.30;;;;;;;;;;1040009;28;20029;-74
2023/12/10 02:18:02;;;;;;;6.60;3.53;;;;;;;;;;1040391;28;20079;-74
2023/12/10 02:18:33;;;;;;;1.95;1.85;;;;;;;;;;1040159;28;20038;-75
2023/12/10 02:19:03;;;;;;;2.90;1.02;;;;;;;;;;1040609;28;20013;-74
2023/12/10 02:19:35;;;;;;;1.35;1.10;;;;;;;;;;1040355;28;20026;-74
2023/12/10 02:20:06;;;;;;;2.40;2.20;;;;;;;;;;1040203;28;20405;-74
2023/12/10 02:20:36;;;;;;;2.55;2.45;;;;;;;;;;1039848;28;20021;-74
2023/12/10 02:21:08;;;;;;;1.40;1.35;;;;;;;;;;1040676;28;20039;-74
2023/12/10 02:21:41;;;;;;;2.72;2.55;;;;;;;;;;1039936;28;20060;-74
2023/12/10 02:22:13;;;;;;;2.53;2.33;;;;;;;;;;1039579;28;20064;-74
2023/12/10 02:23:04;;;;;;;1.77;1.40;;;;;;;;;;1039867;28;20412;-74
2023/12/10 02:23:34;;;;;;;;;;;;;;;;;;1036403;28;20076;-74
2023/12/10 02:24:05;;;;;;;3.75;2.10;;;;;;;;;;1039151;28;19994;-74
2023/12/10 02:24:39;;;;;;;1.63;1.52;;;;;;;;;;1040484;28;20107;-74
2023/12/10 02:25:11;;;;;;;2.38;1.55;;;;;;;;;;1040962;28;20393;-74
2023/12/10 02:25:41;;;;;;;4.45;4.03;;;;;;;;;;1043413;28;20025;-75
2023/12/10 02:26:12;;;;;;;2.63;2.35;;;;;;;;;;1040104;28;20397;-74
2023/12/10 02:26:42;;;;;;;7.28;2.15;;;;;;;;;;1040276;28;20021;-74
2023/12/10 02:27:13;;;;;;;6.68;2.53;;;;;;;;;;1036211;28;20112;-74
2023/12/10 02:27:43;;;;;;;2.72;1.48;;;;;;;;;;1036248;28;20138;-74
2023/12/10 02:28:21;;;;;;;4.07;2.58;;;;;;;;;;1040255;28;20029;-74
2023/12/10 02:28:52;;;;;;;5.45;1.95;;;;;;;;;;1039663;28;20028;-74
2023/12/10 02:29:23;;;;;;;4.93;2.97;;;;;;;;;;1040381;28;20025;-74
2023/12/10 02:29:54;;;;;;;6.93;3.15;;;;;;;;;;1040032;28;20030;-74
2023/12/10 02:30:25;;;;;;;2.22;1.88;;;;;;;;;;1038529;28;20484;-74
2023/12/10 02:30:56;;;;;;;4.68;3.03;;;;;;;;;;1040418;28;20570;-74
2023/12/10 02:31:26;;;;;;;1.25;1.15;;;;;;;;;;1039364;28;20022;-74
2023/12/10 02:31:57;;;;;;;8.25;2.15;;;;;;;;;;1040200;28;20017;-74
2023/12/10 02:32:27;;;;;;;3.13;1.30;;;;;;;;;;1040131;28;20029;-74
2023/12/10 02:32:57;;;;;;;3.83;1.70;;;;;;;;;;1040452;28;20033;-74
2023/12/10 02:33:28;;;;;;;2.72;2.28;;;;;;;;;;1040132;28;20024;-74
2023/12/10 02:33:58;;;;;;;2.47;1.85;;;;;;;;;;1040280;28;20022;-74
2023/12/10 02:34:29;;;;;;;3.42;2.45;;;;;;;;;;1040367;28;20026;-74
2023/12/10 02:34:59;;;;;;;2.45;2.25;;;;;;;;;;1040425;28;20049;-74
2023/12/10 02:35:30;;;;;;;0.85;0.85;;;;;;;;;;1039996;28;20120;-74
2023/12/10 02:36:00;;;;;;;2.35;0.98;;;;;;;;;;1040571;28;20095;-75
2023/12/10 02:36:30;;;;;;;25.85;3.63;;;;;;;;;;1035637;28;20068;-74
2023/12/10 02:37:01;;;;;;;10.25;4.00;;;;;;;;;;1036266;28;20064;-74
2023/12/10 02:37:32;;;;;;;4.13;2.05;;;;;;;;;;1035840;28;20028;-74
2023/12/10 02:38:04;;;;;;;8.75;3.92;;;;;;;;;;1036217;28;20021;-74
2023/12/10 02:38:34;;;;;;;3.85;1.70;;;;;;;;;;1036222;28;20067;-74
2023/12/10 02:39:06;;;;;;;1.48;1.40;;;;;;;;;;1036441;28;20077;-74
2023/12/10 02:39:36;;;;;;;1.77;1.55;;;;;;;;;;1039903;28;20021;-74
2023/12/10 02:40:07;;;;;;;0.90;0.77;;;;;;;;;;1040215;28;20025;-74
2023/12/10 02:40:38;;;;;;;0.75;0.70;;;;;;;;;;1040644;28;20013;-74
2023/12/10 02:41:08;;;;;;;1.38;1.27;;;;;;;;;;1040619;28;20017;-74
2023/12/10 02:41:39;;;;;;;9.18;2.53;;;;;;;;;;1040731;28;20025;-74
2023/12/10 02:42:09;;;;;;;5.28;2.20;;;;;;;;;;1040660;28;20014;-74
2023/12/10 02:42:40;;;;;;;8.85;3.00;;;;;;;;;;1039435;28;20104;-74
2023/12/10 02:43:10;;;;;;;2.13;1.05;;;;;;;;;;1039716;28;20078;-74
2023/12/10 02:43:41;;;;;;;1.52;1.45;;;;;;;;;;1040503;28;20401;-74
2023/12/10 02:44:11;;;;;;;2.80;1.48;;;;;;;;;;1040361;28;20389;-74
2023/12/10 02:44:42;;;;;;;1.40;1.33;;;;;;;;;;1040752;28;20048;-74
2023/12/10 02:45:13;;;;;;;1.70;1.60;;;;;;;;;;1040708;28;20025;-74
2023/12/10 02:45:43;;;;;;;2.53;1.25;;;;;;;;;;1040501;28;20025;-74
2023/12/10 02:46:14;;;;;;;9.30;3.40;;;;;;;;;;1040421;28;20025;-73
2023/12/10 02:46:44;;;;;;;3.95;2.63;;;;;;;;;;1040365;28;20537;-75
2023/12/10 02:47:15;;;;;;;1.13;1.00;;;;;;;;;;1040850;28;20037;-74
2023/12/10 02:47:45;;;;;;;1.63;1.48;;;;;;;;;;1040495;28;20036;-74
2023/12/10 02:48:21;;;;;;;19.98;1.58;;;;;;;;;;1040082;28;20021;-74
2023/12/10 02:48:52;;;;;;;4.40;2.08;;;;;;;;;;1036099;28;20080;-74
2023/12/10 02:49:22;;;;;;;3.55;2.80;;;;;;;;;;1036078;28;20076;-74
2023/12/10 02:49:52;;;;;;;4.00;1.60;;;;;;;;;;1036012;28;20044;-74
2023/12/10 02:50:23;;;;;;;1.70;1.55;;;;;;;;;;1033377;28;20031;-74
2023/12/10 02:50:55;;;;;;;2.63;1.65;;;;;;;;;;1036742;28;20064;-74
2023/12/10 02:51:25;;;;;;;13.60;3.35;;;;;;;;;;1039721;28;20116;-74
2023/12/10 02:51:56;;;;;;;1.30;1.20;;;;;;;;;;1040120;28;20485;-74
2023/12/10 02:52:26;;;;;;;3.88;0.85;;;;;;;;;;1040043;28;20159;-74
2023/12/10 02:52:57;;;;;;;1.35;1.23;;;;;;;;;;1040338;28;20025;-74
2023/12/10 02:53:27;;;;;;;1.70;1.48;;;;;;;;;;1040479;28;20021;-74
2023/12/10 02:53:57;;;;;;;5.50;2.78;;;;;;;;;;1040481;28;20105;-74
2023/12/10 02:54:28;;;;;;;1.63;1.20;;;;;;;;;;1040268;28;20163;-74
2023/12/10 02:54:58;;;;;;;6.57;2.75;;;;;;;;;;1040185;28;20075;-74
2023/12/10 02:55:29;;;;;;;1.90;1.48;;;;;;;;;;1039765;28;20025;-74
2023/12/10 02:55:59;;;;;;;3.13;1.58;;;;;;;;;;1040552;28;20025;-74
2023/12/10 02:56:30;;;;;;;5.28;2.35;;;;;;;;;;1039873;28;20024;-74
2023/12/10 02:57:00;;;;;;;1.05;1.05;;;;;;;;;;1040159;28;20009;-74
2023/12/10 02:57:30;;;;;;;2.65;2.45;;;;;;;;;;1040013;28;20025;-74
2023/12/10 02:58:01;;;;;;;1.52;1.02;;;;;;;;;;1038216;28;20037;-74
2023/12/10 02:58:31;;;;;;;4.60;2.22;;;;;;;;;;1040110;28;20021;-74
2023/12/10 02:59:02;;;;;;;1.92;0.77;;;;;;;;;;1039400;28;20009;-74
2023/12/10 02:59:32;;;;;;;1.55;1.45;;;;;;;;;;1040169;28;20022;-74
2023/12/10 03:00:03;;;;;;;3.17;2.55;;;;;;;;;;1040320;28;20033;-74
2023/12/10 03:00:34;;;;;;;2.92;2.45;;;;;;;;;;1039782;28;20117;-74
2023/12/10 03:01:04;;;;;;;5.97;3.28;;;;;;;;;;1040470;28;20032;-74
2023/12/10 03:01:35;;;;;;;3.78;2.85;;;;;;;;;;1040001;28;20099;-74
2023/12/10 03:02:05;;;;;;;3.15;1.73;;;;;;;;;;1040057;28;20017;-74
2023/12/10 03:02:36;;;;;;;4.22;2.08;;;;;;;;;;1039742;28;20127;-74
2023/12/10 03:03:06;;;;;;;3.35;2.30;;;;;;;;;;1040248;28;20017;-74
2023/12/10 03:03:37;;;;;;;5.80;2.22;;;;;;;;;;1039984;28;20037;-74
2023/12/10 03:04:07;;;;;;;2.03;1.83;;;;;;;;;;1039562;28;20025;-74
2023/12/10 03:04:38;;;;;;;13.75;3.95;;;;;;;;;;1040532;28;20029;-74
2023/12/10 03:05:08;;;;;;;7.97;3.22;;;;;;;;;;1040277;28;20079;-74